sensor_id;sensor_type;location;lat;lon;timestamp;temperature;humidity
12769;DHT22;6448;48.916;8.990;2023-03-01T00:01:03;6.40;46.40
12769;DHT22;6448;48.916;8.990;2023-03-01T00:02:04;6.30;45.70
12769;DHT22;6448;48.916;8.990;2023-03-01T00:03:06;6.30;45.70
12769;DHT22;6448;48.916;8.990;2023-03-01T00:04:07;6.40;45.70
12769;DHT22;6448;48.916;8.990;2023-03-01T00:05:08;6.30;45.70
12769;DHT22;6448;48.916;8.990;2023-03-01T00:06:10;6.30;45.70
12769;DHT22;6448;48.916;8.990;2023-03-01T00:07:12;6.40;45.80
12769;DHT22;6448;48.916;8.990;2023-03-01T00:08:13;6.30;45.70
12769;DHT22;6448;48.916;8.990;2023-03-01T00:09:16;6.30;45.70
12769;DHT22;6448;48.916;8.990;2023-03-01T00:10:18;6.30;45.70
12769;DHT22;6448;48.916;8.990;2023-03-01T00:11:21;6.30;45.70
12769;DHT22;6448;48.916;8.990;2023-03-01T00:12:23;6.30;45.80
12769;DHT22;6448;48.916;8.990;2023-03-01T00:13:27;6.30;45.70
12769;DHT22;6448;48.916;8.990;2023-03-01T00:14:29;6.30;45.80
12769;DHT22;6448;48.916;8.990;2023-03-01T00:15:29;6.40;45.80
12769;DHT22;6448;48.916;8.990;2023-03-01T00:16:34;6.20;45.70
12769;DHT22;6448;48.916;8.990;2023-03-01T00:17:35;6.30;45.80
12769;DHT22;6448;48.916;8.990;2023-03-01T00:18:37;6.20;45.80
12769;DHT22;6448;48.916;8.990;2023-03-01T00:19:38;6.20;45.80
12769;DHT22;6448;48.916;8.990;2023-03-01T00:20:40;6.50;46.00
12769;DHT22;6448;48.916;8.990;2023-03-01T00:21:41;6.20;45.80
12769;DHT22;6448;48.916;8.990;2023-03-01T00:22:42;6.20;45.80
12769;DHT22;6448;48.916;8.990;2023-03-01T00:23:43;6.20;45.80
12769;DHT22;6448;48.916;8.990;2023-03-01T00:24:47;6.20;45.90
12769;DHT22;6448;48.916;8.990;2023-03-01T00:25:48;6.20;45.90
12769;DHT22;6448;48.916;8.990;2023-03-01T00:26:53;6.20;45.90
12769;DHT22;6448;48.916;8.990;2023-03-01T00:27:55;6.20;46.00
12769;DHT22;6448;48.916;8.990;2023-03-01T00:28:58;6.20;46.00
12769;DHT22;6448;48.916;8.990;2023-03-01T00:29:59;6.10;46.00
12769;DHT22;6448;48.916;8.990;2023-03-01T00:31:03;6.10;46.00
12769;DHT22;6448;48.916;8.990;2023-03-01T00:32:04;6.10;46.10
12769;DHT22;6448;48.916;8.990;2023-03-01T00:33:06;6.10;46.10
12769;DHT22;6448;48.916;8.990;2023-03-01T00:34:07;6.10;46.10
12769;DHT22;6448;48.916;8.990;2023-03-01T00:35:09;6.10;46.10
12769;DHT22;6448;48.916;8.990;2023-03-01T00:36:12;6.10;46.10
12769;DHT22;6448;48.916;8.990;2023-03-01T00:37:14;6.10;46.10
12769;DHT22;6448;48.916;8.990;2023-03-01T00:38:15;6.10;46.10
12769;DHT22;6448;48.916;8.990;2023-03-01T00:39:17;6.10;46.10
12769;DHT22;6448;48.916;8.990;2023-03-01T00:40:19;6.10;46.10
12769;DHT22;6448;48.916;8.990;2023-03-01T00:41:22;6.10;46.00
12769;DHT22;6448;48.916;8.990;2023-03-01T00:42:23;6.10;46.00
12769;DHT22;6448;48.916;8.990;2023-03-01T00:43:24;6.00;46.00
12769;DHT22;6448;48.916;8.990;2023-03-01T00:44:25;6.10;46.10
12769;DHT22;6448;48.916;8.990;2023-03-01T00:45:28;6.00;46.10
12769;DHT22;6448;48.916;8.990;2023-03-01T00:46:31;6.00;46.20
12769;DHT22;6448;48.916;8.990;2023-03-01T00:47:34;6.00;46.20
12769;DHT22;6448;48.916;8.990;2023-03-01T00:48:35;6.00;46.20
12769;DHT22;6448;48.916;8.990;2023-03-01T00:49:37;6.00;46.20
12769;DHT22;6448;48.916;8.990;2023-03-01T00:50:38;6.00;46.20
12769;DHT22;6448;48.916;8.990;2023-03-01T00:51:40;6.00;46.20
12769;DHT22;6448;48.916;8.990;2023-03-01T00:52:42;6.00;46.20
12769;DHT22;6448;48.916;8.990;2023-03-01T00:53:43;6.00;46.20
12769;DHT22;6448;48.916;8.990;2023-03-01T00:54:45;6.00;46.20
12769;DHT22;6448;48.916;8.990;2023-03-01T00:55:48;6.00;46.20
12769;DHT22;6448;48.916;8.990;2023-03-01T00:56:50;6.00;46.20
12769;DHT22;6448;48.916;8.990;2023-03-01T00:57:51;5.90;46.20
12769;DHT22;6448;48.916;8.990;2023-03-01T00:58:53;6.00;46.30
12769;DHT22;6448;48.916;8.990;2023-03-01T00:59:54;5.90;46.30
12769;DHT22;6448;48.916;8.990;2023-03-01T01:00:55;5.90;46.30
12769;DHT22;6448;48.916;8.990;2023-03-01T01:01:56;5.90;47.00
12769;DHT22;6448;48.916;8.990;2023-03-01T01:02:59;6.20;46.50
12769;DHT22;6448;48.916;8.990;2023-03-01T01:04:03;5.90;46.40
12769;DHT22;6448;48.916;8.990;2023-03-01T01:05:06;5.90;46.50
12769;DHT22;6448;48.916;8.990;2023-03-01T01:06:13;5.90;46.50
12769;DHT22;6448;48.916;8.990;2023-03-01T01:07:15;5.90;46.50
12769;DHT22;6448;48.916;8.990;2023-03-01T01:08:16;5.90;46.50
12769;DHT22;6448;48.916;8.990;2023-03-01T01:09:18;6.00;46.50
12769;DHT22;6448;48.916;8.990;2023-03-01T01:10:19;5.90;46.50
12769;DHT22;6448;48.916;8.990;2023-03-01T01:11:24;5.90;46.50
12769;DHT22;6448;48.916;8.990;2023-03-01T01:12:25;5.80;46.50
12769;DHT22;6448;48.916;8.990;2023-03-01T01:13:27;5.90;46.50
12769;DHT22;6448;48.916;8.990;2023-03-01T01:14:27;5.90;46.50
12769;DHT22;6448;48.916;8.990;2023-03-01T01:15:33;6.10;46.60
12769;DHT22;6448;48.916;8.990;2023-03-01T01:16:35;5.80;46.60
12769;DHT22;6448;48.916;8.990;2023-03-01T01:17:37;5.80;46.50
12769;DHT22;6448;48.916;8.990;2023-03-01T01:18:37;5.80;46.50
12769;DHT22;6448;48.916;8.990;2023-03-01T01:19:39;5.80;46.50
12769;DHT22;6448;48.916;8.990;2023-03-01T01:20:40;5.80;46.40
12769;DHT22;6448;48.916;8.990;2023-03-01T01:21:42;6.00;46.60
12769;DHT22;6448;48.916;8.990;2023-03-01T01:22:43;5.80;46.50
12769;DHT22;6448;48.916;8.990;2023-03-01T01:23:46;5.80;46.40
12769;DHT22;6448;48.916;8.990;2023-03-01T01:24:47;5.80;46.40
12769;DHT22;6448;48.916;8.990;2023-03-01T01:25:49;5.80;46.40
12769;DHT22;6448;48.916;8.990;2023-03-01T01:26:51;5.70;46.30
12769;DHT22;6448;48.916;8.990;2023-03-01T01:27:52;5.70;46.40
12769;DHT22;6448;48.916;8.990;2023-03-01T01:28:54;5.70;46.40
12769;DHT22;6448;48.916;8.990;2023-03-01T01:29:56;5.70;46.40
12769;DHT22;6448;48.916;8.990;2023-03-01T01:30:56;5.70;46.50
12769;DHT22;6448;48.916;8.990;2023-03-01T01:31:58;5.70;46.50
12769;DHT22;6448;48.916;8.990;2023-03-01T01:33:00;5.60;46.50
12769;DHT22;6448;48.916;8.990;2023-03-01T01:34:03;5.70;46.60
12769;DHT22;6448;48.916;8.990;2023-03-01T01:35:05;5.60;46.60
12769;DHT22;6448;48.916;8.990;2023-03-01T01:36:07;5.60;46.70
12769;DHT22;6448;48.916;8.990;2023-03-01T01:37:09;5.60;46.70
12769;DHT22;6448;48.916;8.990;2023-03-01T01:38:10;5.60;46.70
12769;DHT22;6448;48.916;8.990;2023-03-01T01:39:11;5.60;46.70
12769;DHT22;6448;48.916;8.990;2023-03-01T01:40:13;5.60;46.70
12769;DHT22;6448;48.916;8.990;2023-03-01T01:41:16;5.60;46.70
12769;DHT22;6448;48.916;8.990;2023-03-01T01:42:18;5.60;46.70
12769;DHT22;6448;48.916;8.990;2023-03-01T01:43:22;5.60;46.70
12769;DHT22;6448;48.916;8.990;2023-03-01T01:44:25;5.60;46.70
12769;DHT22;6448;48.916;8.990;2023-03-01T01:45:32;5.60;46.70
12769;DHT22;6448;48.916;8.990;2023-03-01T01:46:35;5.70;46.80
12769;DHT22;6448;48.916;8.990;2023-03-01T01:47:39;5.60;46.70
12769;DHT22;6448;48.916;8.990;2023-03-01T01:48:44;5.50;46.70
12769;DHT22;6448;48.916;8.990;2023-03-01T01:49:49;5.50;46.70
12769;DHT22;6448;48.916;8.990;2023-03-01T01:50:55;5.60;46.70
12769;DHT22;6448;48.916;8.990;2023-03-01T01:52:04;5.50;46.70
12769;DHT22;6448;48.916;8.990;2023-03-01T01:53:10;5.50;46.70
12769;DHT22;6448;48.916;8.990;2023-03-01T01:54:16;5.50;46.70
12769;DHT22;6448;48.916;8.990;2023-03-01T01:55:21;5.50;46.70
12769;DHT22;6448;48.916;8.990;2023-03-01T01:56:24;5.50;46.70
12769;DHT22;6448;48.916;8.990;2023-03-01T01:57:31;5.50;46.70
12769;DHT22;6448;48.916;8.990;2023-03-01T01:58:34;5.50;46.70
12769;DHT22;6448;48.916;8.990;2023-03-01T01:59:36;5.50;46.70
12769;DHT22;6448;48.916;8.990;2023-03-01T02:00:39;5.50;46.80
12769;DHT22;6448;48.916;8.990;2023-03-01T02:01:40;5.50;46.80
12769;DHT22;6448;48.916;8.990;2023-03-01T02:02:43;5.50;46.90
12769;DHT22;6448;48.916;8.990;2023-03-01T02:03:46;5.50;46.90
12769;DHT22;6448;48.916;8.990;2023-03-01T02:04:50;5.50;46.90
12769;DHT22;6448;48.916;8.990;2023-03-01T02:05:57;5.50;46.90
12769;DHT22;6448;48.916;8.990;2023-03-01T02:07:03;5.50;47.00
12769;DHT22;6448;48.916;8.990;2023-03-01T02:08:06;5.50;47.00
12769;DHT22;6448;48.916;8.990;2023-03-01T02:09:12;5.50;47.10
12769;DHT22;6448;48.916;8.990;2023-03-01T02:10:14;5.50;47.10
12769;DHT22;6448;48.916;8.990;2023-03-01T02:11:17;5.50;47.10
12769;DHT22;6448;48.916;8.990;2023-03-01T02:12:21;5.50;47.10
12769;DHT22;6448;48.916;8.990;2023-03-01T02:13:25;5.50;47.10
12769;DHT22;6448;48.916;8.990;2023-03-01T02:14:28;5.50;47.10
12769;DHT22;6448;48.916;8.990;2023-03-01T02:15:32;5.50;47.00
12769;DHT22;6448;48.916;8.990;2023-03-01T02:16:33;5.50;47.00
12769;DHT22;6448;48.916;8.990;2023-03-01T02:17:35;5.70;47.10
12769;DHT22;6448;48.916;8.990;2023-03-01T02:18:38;5.50;47.00
12769;DHT22;6448;48.916;8.990;2023-03-01T02:19:47;5.50;47.00
12769;DHT22;6448;48.916;8.990;2023-03-01T02:21:06;5.80;47.20
12769;DHT22;6448;48.916;8.990;2023-03-01T02:22:17;5.50;47.00
12769;DHT22;6448;48.916;8.990;2023-03-01T02:23:19;5.50;47.00
12769;DHT22;6448;48.916;8.990;2023-03-01T02:24:25;5.50;47.00
12769;DHT22;6448;48.916;8.990;2023-03-01T02:25:32;5.40;47.00
12769;DHT22;6448;48.916;8.990;2023-03-01T02:26:41;5.50;47.00
12769;DHT22;6448;48.916;8.990;2023-03-01T02:27:50;5.50;47.00
12769;DHT22;6448;48.916;8.990;2023-03-01T02:28:54;5.50;47.10
12769;DHT22;6448;48.916;8.990;2023-03-01T02:29:56;5.50;47.00
12769;DHT22;6448;48.916;8.990;2023-03-01T02:30:57;5.40;46.90
12769;DHT22;6448;48.916;8.990;2023-03-01T02:32:18;5.50;47.00
12769;DHT22;6448;48.916;8.990;2023-03-01T02:33:25;5.40;47.00
12769;DHT22;6448;48.916;8.990;2023-03-01T02:34:28;5.40;47.00
12769;DHT22;6448;48.916;8.990;2023-03-01T02:35:35;5.40;47.10
12769;DHT22;6448;48.916;8.990;2023-03-01T02:36:40;5.40;47.10
12769;DHT22;6448;48.916;8.990;2023-03-01T02:37:44;5.40;47.10
12769;DHT22;6448;48.916;8.990;2023-03-01T02:38:46;5.40;47.20
12769;DHT22;6448;48.916;8.990;2023-03-01T02:39:51;5.50;47.30
12769;DHT22;6448;48.916;8.990;2023-03-01T02:40:54;5.00;46.90
12769;DHT22;6448;48.916;8.990;2023-03-01T02:41:57;5.40;47.20
12769;DHT22;6448;48.916;8.990;2023-03-01T02:43:00;5.30;47.20
12769;DHT22;6448;48.916;8.990;2023-03-01T02:44:03;5.40;47.20
12769;DHT22;6448;48.916;8.990;2023-03-01T02:45:05;5.30;47.30
12769;DHT22;6448;48.916;8.990;2023-03-01T02:46:12;5.30;47.40
12769;DHT22;6448;48.916;8.990;2023-03-01T02:47:14;5.30;47.40
12769;DHT22;6448;48.916;8.990;2023-03-01T02:48:16;5.30;47.30
12769;DHT22;6448;48.916;8.990;2023-03-01T02:49:23;5.40;47.30
12769;DHT22;6448;48.916;8.990;2023-03-01T02:50:46;5.40;47.50
12769;DHT22;6448;48.916;8.990;2023-03-01T02:52:17;5.30;47.30
12769;DHT22;6448;48.916;8.990;2023-03-01T02:53:27;5.30;47.20
12769;DHT22;6448;48.916;8.990;2023-03-01T02:54:36;5.30;47.20
12769;DHT22;6448;48.916;8.990;2023-03-01T02:55:40;5.30;47.20
12769;DHT22;6448;48.916;8.990;2023-03-01T02:56:41;5.30;47.20
12769;DHT22;6448;48.916;8.990;2023-03-01T02:57:46;5.30;47.30
12769;DHT22;6448;48.916;8.990;2023-03-01T02:58:51;5.30;47.30
12769;DHT22;6448;48.916;8.990;2023-03-01T02:59:58;5.30;47.30
12769;DHT22;6448;48.916;8.990;2023-03-01T03:01:00;5.30;47.40
12769;DHT22;6448;48.916;8.990;2023-03-01T03:02:02;5.30;47.40
12769;DHT22;6448;48.916;8.990;2023-03-01T03:03:03;5.30;47.50
12769;DHT22;6448;48.916;8.990;2023-03-01T03:04:07;5.30;47.60
12769;DHT22;6448;48.916;8.990;2023-03-01T03:05:11;5.30;47.60
12769;DHT22;6448;48.916;8.990;2023-03-01T03:06:14;5.30;47.70
12769;DHT22;6448;48.916;8.990;2023-03-01T03:07:15;5.30;47.80
12769;DHT22;6448;48.916;8.990;2023-03-01T03:08:18;5.50;47.90
12769;DHT22;6448;48.916;8.990;2023-03-01T03:09:26;5.30;48.00
12769;DHT22;6448;48.916;8.990;2023-03-01T03:10:32;5.30;47.90
12769;DHT22;6448;48.916;8.990;2023-03-01T03:11:33;5.30;48.00
12769;DHT22;6448;48.916;8.990;2023-03-01T03:12:37;5.30;48.60
12769;DHT22;6448;48.916;8.990;2023-03-01T03:13:38;5.30;48.00
12769;DHT22;6448;48.916;8.990;2023-03-01T03:14:49;5.30;48.00
12769;DHT22;6448;48.916;8.990;2023-03-01T03:15:51;5.40;48.00
12769;DHT22;6448;48.916;8.990;2023-03-01T03:16:53;5.30;47.90
12769;DHT22;6448;48.916;8.990;2023-03-01T03:17:55;5.30;47.90
12769;DHT22;6448;48.916;8.990;2023-03-01T03:18:57;5.30;47.90
12769;DHT22;6448;48.916;8.990;2023-03-01T03:20:07;5.30;48.00
12769;DHT22;6448;48.916;8.990;2023-03-01T03:21:12;5.20;47.80
12769;DHT22;6448;48.916;8.990;2023-03-01T03:22:13;5.30;47.90
12769;DHT22;6448;48.916;8.990;2023-03-01T03:23:15;5.30;47.80
12769;DHT22;6448;48.916;8.990;2023-03-01T03:24:16;5.30;47.90
12769;DHT22;6448;48.916;8.990;2023-03-01T03:25:19;5.30;47.80
12769;DHT22;6448;48.916;8.990;2023-03-01T03:26:20;5.20;47.80
12769;DHT22;6448;48.916;8.990;2023-03-01T03:27:22;5.20;47.80
12769;DHT22;6448;48.916;8.990;2023-03-01T03:28:23;5.20;47.80
12769;DHT22;6448;48.916;8.990;2023-03-01T03:29:25;5.30;47.90
12769;DHT22;6448;48.916;8.990;2023-03-01T03:30:27;5.30;48.10
12769;DHT22;6448;48.916;8.990;2023-03-01T03:31:31;5.20;48.10
12769;DHT22;6448;48.916;8.990;2023-03-01T03:32:32;5.20;48.10
12769;DHT22;6448;48.916;8.990;2023-03-01T03:33:34;5.30;48.20
12769;DHT22;6448;48.916;8.990;2023-03-01T03:34:34;5.30;48.30
12769;DHT22;6448;48.916;8.990;2023-03-01T03:35:40;5.40;48.30
12769;DHT22;6448;48.916;8.990;2023-03-01T03:36:41;5.30;48.30
12769;DHT22;6448;48.916;8.990;2023-03-01T03:37:42;5.30;48.30
12769;DHT22;6448;48.916;8.990;2023-03-01T03:39:02;5.30;48.40
12769;DHT22;6448;48.916;8.990;2023-03-01T03:40:07;5.30;48.40
12769;DHT22;6448;48.916;8.990;2023-03-01T03:41:16;5.30;49.10
12769;DHT22;6448;48.916;8.990;2023-03-01T03:42:18;5.30;48.50
12769;DHT22;6448;48.916;8.990;2023-03-01T03:43:20;5.30;48.50
12769;DHT22;6448;48.916;8.990;2023-03-01T03:44:22;5.20;48.40
12769;DHT22;6448;48.916;8.990;2023-03-01T03:45:23;5.30;48.50
12769;DHT22;6448;48.916;8.990;2023-03-01T03:46:25;5.30;48.60
12769;DHT22;6448;48.916;8.990;2023-03-01T03:47:27;5.30;48.60
12769;DHT22;6448;48.916;8.990;2023-03-01T03:48:29;5.30;48.60
12769;DHT22;6448;48.916;8.990;2023-03-01T03:49:30;5.30;48.60
12769;DHT22;6448;48.916;8.990;2023-03-01T03:50:32;5.30;48.50
12769;DHT22;6448;48.916;8.990;2023-03-01T03:51:33;5.30;48.50
12769;DHT22;6448;48.916;8.990;2023-03-01T03:52:34;5.30;48.50
12769;DHT22;6448;48.916;8.990;2023-03-01T03:53:35;5.30;48.50
12769;DHT22;6448;48.916;8.990;2023-03-01T03:54:37;5.30;48.50
12769;DHT22;6448;48.916;8.990;2023-03-01T03:55:38;5.30;48.50
12769;DHT22;6448;48.916;8.990;2023-03-01T03:56:40;5.30;48.50
12769;DHT22;6448;48.916;8.990;2023-03-01T03:57:41;5.30;48.60
12769;DHT22;6448;48.916;8.990;2023-03-01T03:58:43;5.30;48.80
12769;DHT22;6448;48.916;8.990;2023-03-01T03:59:44;5.30;48.80
12769;DHT22;6448;48.916;8.990;2023-03-01T04:00:47;5.30;48.90
12769;DHT22;6448;48.916;8.990;2023-03-01T04:01:48;5.30;49.00
12769;DHT22;6448;48.916;8.990;2023-03-01T04:02:51;5.30;49.00
12769;DHT22;6448;48.916;8.990;2023-03-01T04:03:56;5.30;49.00
12769;DHT22;6448;48.916;8.990;2023-03-01T04:05:05;5.30;49.10
12769;DHT22;6448;48.916;8.990;2023-03-01T04:06:06;5.30;49.10
12769;DHT22;6448;48.916;8.990;2023-03-01T04:07:08;5.40;49.20
12769;DHT22;6448;48.916;8.990;2023-03-01T04:08:09;5.40;49.10
12769;DHT22;6448;48.916;8.990;2023-03-01T04:09:10;5.30;49.00
12769;DHT22;6448;48.916;8.990;2023-03-01T04:10:14;5.30;49.00
12769;DHT22;6448;48.916;8.990;2023-03-01T04:11:15;5.40;49.00
12769;DHT22;6448;48.916;8.990;2023-03-01T04:12:29;5.40;49.00
12769;DHT22;6448;48.916;8.990;2023-03-01T04:13:30;5.30;49.00
12769;DHT22;6448;48.916;8.990;2023-03-01T04:14:32;5.30;49.00
12769;DHT22;6448;48.916;8.990;2023-03-01T04:15:34;5.40;49.20
12769;DHT22;6448;48.916;8.990;2023-03-01T04:16:35;5.30;49.10
12769;DHT22;6448;48.916;8.990;2023-03-01T04:17:36;5.30;49.10
12769;DHT22;6448;48.916;8.990;2023-03-01T04:18:41;5.30;49.10
12769;DHT22;6448;48.916;8.990;2023-03-01T04:19:41;5.30;49.10
12769;DHT22;6448;48.916;8.990;2023-03-01T04:20:45;5.40;49.20
12769;DHT22;6448;48.916;8.990;2023-03-01T04:21:46;5.30;49.10
12769;DHT22;6448;48.916;8.990;2023-03-01T04:22:47;5.40;49.10
12769;DHT22;6448;48.916;8.990;2023-03-01T04:23:48;5.40;49.10
12769;DHT22;6448;48.916;8.990;2023-03-01T04:24:52;5.40;49.10
12769;DHT22;6448;48.916;8.990;2023-03-01T04:25:54;5.40;49.10
12769;DHT22;6448;48.916;8.990;2023-03-01T04:26:57;5.40;49.10
12769;DHT22;6448;48.916;8.990;2023-03-01T04:27:57;5.30;49.00
12769;DHT22;6448;48.916;8.990;2023-03-01T04:28:59;5.40;49.10
12769;DHT22;6448;48.916;8.990;2023-03-01T04:30:00;5.40;49.10
12769;DHT22;6448;48.916;8.990;2023-03-01T04:31:04;5.40;49.10
12769;DHT22;6448;48.916;8.990;2023-03-01T04:32:13;5.40;49.10
12769;DHT22;6448;48.916;8.990;2023-03-01T04:33:16;5.40;49.10
12769;DHT22;6448;48.916;8.990;2023-03-01T04:34:19;5.40;49.10
12769;DHT22;6448;48.916;8.990;2023-03-01T04:35:20;5.40;49.20
12769;DHT22;6448;48.916;8.990;2023-03-01T04:36:24;5.40;49.20
12769;DHT22;6448;48.916;8.990;2023-03-01T04:37:26;5.40;49.20
12769;DHT22;6448;48.916;8.990;2023-03-01T04:38:27;5.40;49.20
12769;DHT22;6448;48.916;8.990;2023-03-01T04:39:28;5.40;49.20
12769;DHT22;6448;48.916;8.990;2023-03-01T04:40:29;5.40;49.20
12769;DHT22;6448;48.916;8.990;2023-03-01T04:41:31;5.40;49.20
12769;DHT22;6448;48.916;8.990;2023-03-01T04:42:32;5.40;49.20
12769;DHT22;6448;48.916;8.990;2023-03-01T04:43:34;5.40;49.20
12769;DHT22;6448;48.916;8.990;2023-03-01T04:44:34;5.40;49.20
12769;DHT22;6448;48.916;8.990;2023-03-01T04:45:36;5.40;49.20
12769;DHT22;6448;48.916;8.990;2023-03-01T04:46:37;5.40;49.20
12769;DHT22;6448;48.916;8.990;2023-03-01T04:47:40;5.40;49.20
12769;DHT22;6448;48.916;8.990;2023-03-01T04:48:42;5.40;49.20
12769;DHT22;6448;48.916;8.990;2023-03-01T04:49:45;5.40;49.90
12769;DHT22;6448;48.916;8.990;2023-03-01T04:50:46;5.40;49.20
12769;DHT22;6448;48.916;8.990;2023-03-01T04:51:48;5.40;49.20
12769;DHT22;6448;48.916;8.990;2023-03-01T04:52:49;5.40;49.30
12769;DHT22;6448;48.916;8.990;2023-03-01T04:53:50;5.40;49.30
12769;DHT22;6448;48.916;8.990;2023-03-01T04:54:52;5.40;49.20
12769;DHT22;6448;48.916;8.990;2023-03-01T04:55:54;5.40;49.20
12769;DHT22;6448;48.916;8.990;2023-03-01T04:56:55;5.40;49.20
12769;DHT22;6448;48.916;8.990;2023-03-01T04:57:56;5.40;49.20
12769;DHT22;6448;48.916;8.990;2023-03-01T04:58:58;5.40;49.20
12769;DHT22;6448;48.916;8.990;2023-03-01T05:00:00;5.40;49.20
12769;DHT22;6448;48.916;8.990;2023-03-01T05:01:01;5.40;49.20
12769;DHT22;6448;48.916;8.990;2023-03-01T05:02:15;5.40;49.30
12769;DHT22;6448;48.916;8.990;2023-03-01T05:03:16;5.40;49.20
12769;DHT22;6448;48.916;8.990;2023-03-01T05:04:18;5.40;49.30
12769;DHT22;6448;48.916;8.990;2023-03-01T05:05:22;5.40;49.30
12769;DHT22;6448;48.916;8.990;2023-03-01T05:06:25;5.40;49.30
12769;DHT22;6448;48.916;8.990;2023-03-01T05:07:28;5.40;49.30
12769;DHT22;6448;48.916;8.990;2023-03-01T05:08:28;5.50;49.40
12769;DHT22;6448;48.916;8.990;2023-03-01T05:09:30;5.40;49.30
12769;DHT22;6448;48.916;8.990;2023-03-01T05:10:33;5.40;49.30
12769;DHT22;6448;48.916;8.990;2023-03-01T05:11:35;5.40;49.30
12769;DHT22;6448;48.916;8.990;2023-03-01T05:12:36;5.40;49.20
12769;DHT22;6448;48.916;8.990;2023-03-01T05:13:39;5.40;49.30
12769;DHT22;6448;48.916;8.990;2023-03-01T05:14:40;5.40;49.30
12769;DHT22;6448;48.916;8.990;2023-03-01T05:15:42;5.40;49.30
12769;DHT22;6448;48.916;8.990;2023-03-01T05:16:44;5.40;49.40
12769;DHT22;6448;48.916;8.990;2023-03-01T05:17:45;5.40;49.40
12769;DHT22;6448;48.916;8.990;2023-03-01T05:18:47;5.40;49.50
12769;DHT22;6448;48.916;8.990;2023-03-01T05:19:48;5.40;49.50
12769;DHT22;6448;48.916;8.990;2023-03-01T05:20:51;5.40;49.50
12769;DHT22;6448;48.916;8.990;2023-03-01T05:21:52;5.30;49.40
12769;DHT22;6448;48.916;8.990;2023-03-01T05:23:04;5.40;49.50
12769;DHT22;6448;48.916;8.990;2023-03-01T05:24:07;5.40;49.50
12769;DHT22;6448;48.916;8.990;2023-03-01T05:25:12;5.40;49.60
12769;DHT22;6448;48.916;8.990;2023-03-01T05:26:15;5.40;49.60
12769;DHT22;6448;48.916;8.990;2023-03-01T05:27:16;5.40;49.60
12769;DHT22;6448;48.916;8.990;2023-03-01T05:28:18;5.40;49.60
12769;DHT22;6448;48.916;8.990;2023-03-01T05:29:20;5.40;49.60
12769;DHT22;6448;48.916;8.990;2023-03-01T05:30:25;5.30;49.60
12769;DHT22;6448;48.916;8.990;2023-03-01T05:31:26;5.30;49.60
12769;DHT22;6448;48.916;8.990;2023-03-01T05:32:28;5.40;50.30
12769;DHT22;6448;48.916;8.990;2023-03-01T05:33:32;5.40;49.60
12769;DHT22;6448;48.916;8.990;2023-03-01T05:34:35;5.30;49.60
12769;DHT22;6448;48.916;8.990;2023-03-01T05:35:36;5.40;49.60
12769;DHT22;6448;48.916;8.990;2023-03-01T05:36:39;5.40;49.60
12769;DHT22;6448;48.916;8.990;2023-03-01T05:37:41;5.40;49.60
12769;DHT22;6448;48.916;8.990;2023-03-01T05:38:43;5.40;49.60
12769;DHT22;6448;48.916;8.990;2023-03-01T05:39:44;5.40;49.60
12769;DHT22;6448;48.916;8.990;2023-03-01T05:40:48;5.40;49.60
12769;DHT22;6448;48.916;8.990;2023-03-01T05:41:52;5.40;49.60
12769;DHT22;6448;48.916;8.990;2023-03-01T05:42:55;5.40;49.60
12769;DHT22;6448;48.916;8.990;2023-03-01T05:43:56;5.40;49.60
12769;DHT22;6448;48.916;8.990;2023-03-01T05:44:58;5.40;49.50
12769;DHT22;6448;48.916;8.990;2023-03-01T05:45:59;5.40;49.60
12769;DHT22;6448;48.916;8.990;2023-03-01T05:47:00;5.40;49.50
12769;DHT22;6448;48.916;8.990;2023-03-01T05:48:01;5.40;49.40
12769;DHT22;6448;48.916;8.990;2023-03-01T05:49:03;5.40;49.30
12769;DHT22;6448;48.916;8.990;2023-03-01T05:50:05;5.40;49.30
12769;DHT22;6448;48.916;8.990;2023-03-01T05:51:07;5.40;49.20
12769;DHT22;6448;48.916;8.990;2023-03-01T05:52:10;5.40;49.20
12769;DHT22;6448;48.916;8.990;2023-03-01T05:53:12;5.40;49.10
12769;DHT22;6448;48.916;8.990;2023-03-01T05:54:15;5.40;49.20
12769;DHT22;6448;48.916;8.990;2023-03-01T05:55:16;5.40;49.10
12769;DHT22;6448;48.916;8.990;2023-03-01T05:56:18;5.40;49.10
12769;DHT22;6448;48.916;8.990;2023-03-01T05:57:22;5.40;49.10
12769;DHT22;6448;48.916;8.990;2023-03-01T05:58:23;5.40;49.00
12769;DHT22;6448;48.916;8.990;2023-03-01T05:59:25;5.40;49.00
12769;DHT22;6448;48.916;8.990;2023-03-01T06:00:26;5.60;49.10
12769;DHT22;6448;48.916;8.990;2023-03-01T06:01:28;5.40;49.10
12769;DHT22;6448;48.916;8.990;2023-03-01T06:02:29;5.40;49.10
12769;DHT22;6448;48.916;8.990;2023-03-01T06:03:30;5.40;49.10
12769;DHT22;6448;48.916;8.990;2023-03-01T06:04:32;5.30;49.00
12769;DHT22;6448;48.916;8.990;2023-03-01T06:05:33;5.40;49.10
12769;DHT22;6448;48.916;8.990;2023-03-01T06:06:35;5.30;49.00
12769;DHT22;6448;48.916;8.990;2023-03-01T06:07:39;5.30;49.00
12769;DHT22;6448;48.916;8.990;2023-03-01T06:08:41;5.40;49.10
12769;DHT22;6448;48.916;8.990;2023-03-01T06:09:42;5.30;49.10
12769;DHT22;6448;48.916;8.990;2023-03-01T06:10:46;5.30;49.10
12769;DHT22;6448;48.916;8.990;2023-03-01T06:11:48;5.30;49.20
12769;DHT22;6448;48.916;8.990;2023-03-01T06:12:49;5.30;49.20
12769;DHT22;6448;48.916;8.990;2023-03-01T06:13:50;5.30;49.20
12769;DHT22;6448;48.916;8.990;2023-03-01T06:14:51;5.30;49.20
12769;DHT22;6448;48.916;8.990;2023-03-01T06:15:53;5.30;49.20
12769;DHT22;6448;48.916;8.990;2023-03-01T06:16:55;5.10;49.20
12769;DHT22;6448;48.916;8.990;2023-03-01T06:17:56;5.30;49.20
12769;DHT22;6448;48.916;8.990;2023-03-01T06:18:58;5.30;49.30
12769;DHT22;6448;48.916;8.990;2023-03-01T06:19:59;5.30;49.20
12769;DHT22;6448;48.916;8.990;2023-03-01T06:21:01;5.60;49.50
12769;DHT22;6448;48.916;8.990;2023-03-01T06:22:02;5.30;49.40
12769;DHT22;6448;48.916;8.990;2023-03-01T06:23:05;5.30;49.40
12769;DHT22;6448;48.916;8.990;2023-03-01T06:24:07;5.30;49.40
12769;DHT22;6448;48.916;8.990;2023-03-01T06:25:10;5.30;49.40
12769;DHT22;6448;48.916;8.990;2023-03-01T06:26:12;5.30;49.40
12769;DHT22;6448;48.916;8.990;2023-03-01T06:27:13;5.30;49.40
12769;DHT22;6448;48.916;8.990;2023-03-01T06:28:15;5.30;49.40
12769;DHT22;6448;48.916;8.990;2023-03-01T06:29:17;5.30;49.50
12769;DHT22;6448;48.916;8.990;2023-03-01T06:30:19;5.30;49.50
12769;DHT22;6448;48.916;8.990;2023-03-01T06:31:21;5.30;49.60
12769;DHT22;6448;48.916;8.990;2023-03-01T06:32:23;5.30;49.60
12769;DHT22;6448;48.916;8.990;2023-03-01T06:33:24;5.40;49.60
12769;DHT22;6448;48.916;8.990;2023-03-01T06:34:26;5.30;49.60
12769;DHT22;6448;48.916;8.990;2023-03-01T06:35:27;5.30;49.60
12769;DHT22;6448;48.916;8.990;2023-03-01T06:36:30;5.30;49.60
12769;DHT22;6448;48.916;8.990;2023-03-01T06:37:30;5.30;49.60
12769;DHT22;6448;48.916;8.990;2023-03-01T06:38:34;5.30;49.60
12769;DHT22;6448;48.916;8.990;2023-03-01T06:39:35;5.30;49.60
12769;DHT22;6448;48.916;8.990;2023-03-01T06:40:37;5.30;49.70
12769;DHT22;6448;48.916;8.990;2023-03-01T06:41:38;5.30;49.70
12769;DHT22;6448;48.916;8.990;2023-03-01T06:42:42;5.30;49.70
12769;DHT22;6448;48.916;8.990;2023-03-01T06:43:43;5.30;49.80
12769;DHT22;6448;48.916;8.990;2023-03-01T06:44:44;5.30;49.80
12769;DHT22;6448;48.916;8.990;2023-03-01T06:45:46;5.30;49.90
12769;DHT22;6448;48.916;8.990;2023-03-01T06:46:48;5.40;49.90
12769;DHT22;6448;48.916;8.990;2023-03-01T06:47:49;5.30;49.90
12769;DHT22;6448;48.916;8.990;2023-03-01T06:48:50;5.30;50.00
12769;DHT22;6448;48.916;8.990;2023-03-01T06:49:51;5.30;50.00
12769;DHT22;6448;48.916;8.990;2023-03-01T06:50:53;5.40;50.00